sensor_id;sensor_type;location;lat;lon;timestamp;pressure;altitude;pressure_sealevel;temperature;humidity
35435;BME280;21556;55.782;37.528;2023-12-14T00:00:44;100412.19;;;-10.47;100.00
35435;BME280;21556;55.782;37.528;2023-12-14T00:03:10;100414.91;;;-9.91;100.00
35435;BME280;21556;55.782;37.528;2023-12-14T00:05:42;100419.59;;;-10.10;100.00
35435;BME280;21556;55.782;37.528;2023-12-14T00:08:08;100417.81;;;-10.11;100.00
35435;BME280;21556;55.782;37.528;2023-12-14T00:10:34;100408.91;;;-10.07;100.00
35435;BME280;21556;55.782;37.528;2023-12-14T00:13:00;100406.34;;;-9.91;100.00
35435;BME280;21556;55.782;37.528;2023-12-14T00:15:27;100416.09;;;-10.03;100.00
35435;BME280;21556;55.782;37.528;2023-12-14T00:17:53;100414.50;;;-9.87;100.00
35435;BME280;21556;55.782;37.528;2023-12-14T00:20:19;100410.97;;;-9.80;100.00
35435;BME280;21556;55.782;37.528;2023-12-14T00:22:46;100405.56;;;-9.67;100.00
35435;BME280;21556;55.782;37.528;2023-12-14T00:25:12;100410.13;;;-10.04;100.00
35435;BME280;21556;55.782;37.528;2023-12-14T00:27:38;100409.16;;;-9.97;100.00
35435;BME280;21556;55.782;37.528;2023-12-14T00:30:07;100409.16;;;-9.97;100.00
35435;BME280;21556;55.782;37.528;2023-12-14T00:32:34;100402.59;;;-9.95;100.00
35435;BME280;21556;55.782;37.528;2023-12-14T00:35:10;100408.44;;;-9.80;100.00
35435;BME280;21556;55.782;37.528;2023-12-14T00:37:37;100406.94;;;-9.94;100.00
35435;BME280;21556;55.782;37.528;2023-12-14T00:40:07;100413.16;;;-10.31;100.00
35435;BME280;21556;55.782;37.528;2023-12-14T00:42:38;100415.25;;;-10.65;100.00
35435;BME280;21556;55.782;37.528;2023-12-14T00:45:04;100404.59;;;-10.47;100.00
35435;BME280;21556;55.782;37.528;2023-12-14T00:47:38;100410.56;;;-10.47;100.00
35435;BME280;21556;55.782;37.528;2023-12-14T00:50:13;100397.91;;;-10.15;100.00
35435;BME280;21556;55.782;37.528;2023-12-14T00:52:42;100404.50;;;-10.01;100.00
35435;BME280;21556;55.782;37.528;2023-12-14T00:55:08;100411.41;;;-10.23;100.00
35435;BME280;21556;55.782;37.528;2023-12-14T00:57:44;100400.69;;;-10.21;100.00
35435;BME280;21556;55.782;37.528;2023-12-14T01:00:14;100410.94;;;-10.28;100.00
35435;BME280;21556;55.782;37.528;2023-12-14T01:02:40;100408.59;;;-10.26;100.00
35435;BME280;21556;55.782;37.528;2023-12-14T01:05:07;100404.78;;;-10.46;100.00
35435;BME280;21556;55.782;37.528;2023-12-14T01:07:33;100417.69;;;-10.51;100.00
35435;BME280;21556;55.782;37.528;2023-12-14T01:09:59;100410.56;;;-10.47;100.00
35435;BME280;21556;55.782;37.528;2023-12-14T01:12:31;100401.78;;;-10.34;100.00
35435;BME280;21556;55.782;37.528;2023-12-14T01:14:58;100395.97;;;-10.33;100.00
35435;BME280;21556;55.782;37.528;2023-12-14T01:17:24;100398.25;;;-9.64;100.00
35435;BME280;21556;55.782;37.528;2023-12-14T01:19:50;100405.44;;;-9.29;100.00
35435;BME280;21556;55.782;37.528;2023-12-14T01:22:16;100410.69;;;-9.59;100.00
35435;BME280;21556;55.782;37.528;2023-12-14T01:24:43;100401.56;;;-9.25;100.00
35435;BME280;21556;55.782;37.528;2023-12-14T01:27:09;100408.88;;;-9.44;100.00
35435;BME280;21556;55.782;37.528;2023-12-14T01:29:36;100410.47;;;-9.85;100.00
35435;BME280;21556;55.782;37.528;2023-12-14T01:32:02;100398.16;;;-9.73;100.00
35435;BME280;21556;55.782;37.528;2023-12-14T01:34:28;100408.09;;;-9.83;100.00
35435;BME280;21556;55.782;37.528;2023-12-14T01:36:55;100409.91;;;-9.98;100.00
35435;BME280;21556;55.782;37.528;2023-12-14T01:39:21;100408.44;;;-9.80;100.00
35435;BME280;21556;55.782;37.528;2023-12-14T01:41:47;100410.22;;;-9.63;100.00
35435;BME280;21556;55.782;37.528;2023-12-14T01:44:15;100410.38;;;-9.78;100.00
35435;BME280;21556;55.782;37.528;2023-12-14T01:46:41;100409.38;;;-10.03;100.00
35435;BME280;21556;55.782;37.528;2023-12-14T01:49:08;100402.44;;;-9.97;100.00
35435;BME280;21556;55.782;37.528;2023-12-14T01:51:34;100406.53;;;-9.74;100.00
35435;BME280;21556;55.782;37.528;2023-12-14T01:54:04;100407.59;;;-10.04;100.00
35435;BME280;21556;55.782;37.528;2023-12-14T01:56:30;100409.31;;;-10.27;100.00
35435;BME280;21556;55.782;37.528;2023-12-14T01:58:56;100400.06;;;-10.27;100.00
35435;BME280;21556;55.782;37.528;2023-12-14T02:01:28;100410.13;;;-10.58;100.00
35435;BME280;21556;55.782;37.528;2023-12-14T02:03:58;100401.72;;;-10.27;100.00
35435;BME280;21556;55.782;37.528;2023-12-14T02:06:24;100409.84;;;-10.46;100.00
35435;BME280;21556;55.782;37.528;2023-12-14T02:08:50;100398.72;;;-10.23;100.00
35435;BME280;21556;55.782;37.528;2023-12-14T02:11:16;100398.25;;;-9.96;100.00
35435;BME280;21556;55.782;37.528;2023-12-14T02:13:43;100413.06;;;-10.08;100.00
35435;BME280;21556;55.782;37.528;2023-12-14T02:16:10;100395.78;;;-10.35;100.00
35435;BME280;21556;55.782;37.528;2023-12-14T02:18:38;100405.78;;;-10.36;100.00
35435;BME280;21556;55.782;37.528;2023-12-14T02:21:24;100397.91;;;-10.15;100.00
35435;BME280;21556;55.782;37.528;2023-12-14T02:23:54;100395.22;;;-10.16;100.00
35435;BME280;21556;55.782;37.528;2023-12-14T02:26:20;100397.28;;;-10.05;100.00
35435;BME280;21556;55.782;37.528;2023-12-14T02:28:46;100396.78;;;-10.26;100.00
35435;BME280;21556;55.782;37.528;2023-12-14T02:31:12;100397.66;;;-10.09;100.00
35435;BME280;21556;55.782;37.528;2023-12-14T02:33:38;100386.38;;;-10.04;100.00
35435;BME280;21556;55.782;37.528;2023-12-14T02:36:05;100396.63;;;-10.27;100.00
35435;BME280;21556;55.782;37.528;2023-12-14T02:38:34;100402.69;;;-10.57;100.00
35435;BME280;21556;55.782;37.528;2023-12-14T02:41:00;100406.56;;;-10.68;100.00
35435;BME280;21556;55.782;37.528;2023-12-14T02:43:26;100402.09;;;-10.15;100.00
35435;BME280;21556;55.782;37.528;2023-12-14T02:45:52;100405.38;;;-10.01;100.00
35435;BME280;21556;55.782;37.528;2023-12-14T02:48:21;100409.72;;;-10.00;100.00
35435;BME280;21556;55.782;37.528;2023-12-14T02:50:47;100396.59;;;-10.11;100.00
35435;BME280;21556;55.782;37.528;2023-12-14T02:53:13;100412.97;;;-10.32;100.00
35435;BME280;21556;55.782;37.528;2023-12-14T02:55:40;100429.00;;;-10.25;100.00
35435;BME280;21556;55.782;37.528;2023-12-14T02:58:08;100412.31;;;-10.23;100.00
35435;BME280;21556;55.782;37.528;2023-12-14T03:00:35;100405.75;;;-10.21;100.00
35435;BME280;21556;55.782;37.528;2023-12-14T03:03:07;100397.69;;;-9.94;100.00
35435;BME280;21556;55.782;37.528;2023-12-14T03:05:33;100406.50;;;-10.06;100.00
35435;BME280;21556;55.782;37.528;2023-12-14T03:07:59;100401.19;;;-10.00;100.00
35435;BME280;21556;55.782;37.528;2023-12-14T03:10:26;100407.25;;;-10.07;100.00
35435;BME280;21556;55.782;37.528;2023-12-14T03:12:52;100409.13;;;-10.29;100.00
35435;BME280;21556;55.782;37.528;2023-12-14T03:15:18;100417.09;;;-10.26;100.00
35435;BME280;21556;55.782;37.528;2023-12-14T03:17:48;100412.84;;;-9.86;100.00
35435;BME280;21556;55.782;37.528;2023-12-14T03:20:17;100418.56;;;-10.12;100.00
35435;BME280;21556;55.782;37.528;2023-12-14T03:22:43;100421.03;;;-10.05;100.00
35435;BME280;21556;55.782;37.528;2023-12-14T03:25:10;100419.47;;;-10.27;100.00
35435;BME280;21556;55.782;37.528;2023-12-14T03:27:39;100418.56;;;-10.12;100.00
35435;BME280;21556;55.782;37.528;2023-12-14T03:30:06;100416.66;;;-10.06;100.00
35435;BME280;21556;55.782;37.528;2023-12-14T03:32:40;100401.38;;;-10.30;100.00
35435;BME280;21556;55.782;37.528;2023-12-14T03:35:09;100411.38;;;-10.55;100.00
35435;BME280;21556;55.782;37.528;2023-12-14T03:37:37;100404.94;;;-10.44;100.00
35435;BME280;21556;55.782;37.528;2023-12-14T03:40:07;100407.59;;;-10.20;100.00
35435;BME280;21556;55.782;37.528;2023-12-14T03:42:35;100408.78;;;-10.48;100.00
35435;BME280;21556;55.782;37.528;2023-12-14T03:45:02;100399.00;;;-10.13;100.00
35435;BME280;21556;55.782;37.528;2023-12-14T03:47:35;100397.59;;;-10.02;100.00
35435;BME280;21556;55.782;37.528;2023-12-14T03:50:04;100395.22;;;-10.01;100.00
35435;BME280;21556;55.782;37.528;2023-12-14T03:52:30;100405.38;;;-10.01;100.00
35435;BME280;21556;55.782;37.528;2023-12-14T03:55:02;100400.41;;;-9.76;100.00
35435;BME280;21556;55.782;37.528;2023-12-14T03:57:30;100414.28;;;-10.20;100.00
35435;BME280;21556;55.782;37.528;2023-12-14T03:59:59;100401.34;;;-9.99;100.00
35435;BME280;21556;55.782;37.528;2023-12-14T04:02:27;100410.22;;;-10.27;100.00
35435;BME280;21556;55.782;37.528;2023-12-14T04:04:53;100408.31;;;-10.36;100.00
35435;BME280;21556;55.782;37.528;2023-12-14T04:07:20;100412.75;;;-10.27;100.00
35435;BME280;21556;55.782;37.528;2023-12-14T04:09:48;100395.56;;;-9.98;100.00
35435;BME280;21556;55.782;37.528;2023-12-14T04:12:15;100395.72;;;-10.12;100.00
35435;BME280;21556;55.782;37.528;2023-12-14T04:14:45;100391.28;;;-10.06;100.00
35435;BME280;21556;55.782;37.528;2023-12-14T04:17:12;100392.03;;;-10.07;100.00
35435;BME280;21556;55.782;37.528;2023-12-14T04:19:44;100392.44;;;-10.11;100.00
35435;BME280;21556;55.782;37.528;2023-12-14T04:22:14;100394.16;;;-10.19;100.00
35435;BME280;21556;55.782;37.528;2023-12-14T04:24:40;100381.47;;;-10.19;100.00
35435;BME280;21556;55.782;37.528;2023-12-14T04:27:06;100390.97;;;-10.09;100.00
35435;BME280;21556;55.782;37.528;2023-12-14T04:29:33;100395.88;;;-10.10;100.00
35435;BME280;21556;55.782;37.528;2023-12-14T04:32:02;100394.22;;;-10.10;100.00
35435;BME280;21556;55.782;37.528;2023-12-14T04:34:35;100382.75;;;-10.06;100.00
35435;BME280;21556;55.782;37.528;2023-12-14T04:37:15;100396.34;;;-10.06;100.00
35435;BME280;21556;55.782;37.528;2023-12-14T04:40:00;100391.19;;;-9.99;100.00
35435;BME280;21556;55.782;37.528;2023-12-14T04:42:26;100387.34;;;-10.11;100.00
35435;BME280;21556;55.782;37.528;2023-12-14T04:44:58;100384.50;;;-9.98;100.00
35435;BME280;21556;55.782;37.528;2023-12-14T04:47:25;100387.34;;;-10.11;100.00
35435;BME280;21556;55.782;37.528;2023-12-14T04:50:23;100393.25;;;-10.19;100.00
35435;BME280;21556;55.782;37.528;2023-12-14T04:53:26;100398.19;;;-10.05;100.00
35435;BME280;21556;55.782;37.528;2023-12-14T04:55:55;100386.47;;;-10.11;100.00
35435;BME280;21556;55.782;37.528;2023-12-14T04:58:22;100390.50;;;-9.98;100.00
35435;BME280;21556;55.782;37.528;2023-12-14T05:00:48;100397.34;;;-9.97;100.00
35435;BME280;21556;55.782;37.528;2023-12-14T05:03:17;100400.97;;;-9.95;100.00
35435;BME280;21556;55.782;37.528;2023-12-14T05:05:43;100397.84;;;-10.08;100.00
35435;BME280;21556;55.782;37.528;2023-12-14T05:08:11;100399.66;;;-9.91;100.00
35435;BME280;21556;55.782;37.528;2023-12-14T05:10:38;100398.25;;;-10.12;100.00
35435;BME280;21556;55.782;37.528;2023-12-14T05:13:04;100403.34;;;-10.12;100.00
35435;BME280;21556;55.782;37.528;2023-12-14T05:15:30;100416.34;;;-10.09;100.00
35435;BME280;21556;55.782;37.528;2023-12-14T05:17:57;100410.66;;;-9.83;100.00
35435;BME280;21556;55.782;37.528;2023-12-14T05:20:23;100393.19;;;-9.80;100.00
35435;BME280;21556;55.782;37.528;2023-12-14T05:22:49;100407.50;;;-9.81;100.00
35435;BME280;21556;55.782;37.528;2023-12-14T05:25:16;100398.25;;;-10.12;100.00
35435;BME280;21556;55.782;37.528;2023-12-14T05:27:42;100407.31;;;-10.14;100.00
35435;BME280;21556;55.782;37.528;2023-12-14T05:30:08;100410.31;;;-9.86;100.00
35435;BME280;21556;55.782;37.528;2023-12-14T05:32:34;100408.59;;;-9.79;100.00
35435;BME280;21556;55.782;37.528;2023-12-14T05:35:03;100418.22;;;-9.99;100.00
35435;BME280;21556;55.782;37.528;2023-12-14T05:37:30;100404.75;;;-9.75;100.00
35435;BME280;21556;55.782;37.528;2023-12-14T05:39:57;100398.81;;;-9.67;100.00
35435;BME280;21556;55.782;37.528;2023-12-14T05:42:23;100408.34;;;-9.89;100.00
35435;BME280;21556;55.782;37.528;2023-12-14T05:44:49;100402.22;;;-9.91;100.00
35435;BME280;21556;55.782;37.528;2023-12-14T05:47:15;100396.38;;;-9.74;100.00
35435;BME280;21556;55.782;37.528;2023-12-14T05:49:43;100406.19;;;-9.77;100.00
35435;BME280;21556;55.782;37.528;2023-12-14T05:52:10;100393.28;;;-9.72;100.00
35435;BME280;21556;55.782;37.528;2023-12-14T05:54:39;100399.16;;;-9.96;100.00
35435;BME280;21556;55.782;37.528;2023-12-14T05:57:08;100393.25;;;-10.03;100.00
35435;BME280;21556;55.782;37.528;2023-12-14T05:59:35;100400.22;;;-9.94;100.00
35435;BME280;21556;55.782;37.528;2023-12-14T06:02:03;100396.44;;;-9.81;100.00
35435;BME280;21556;55.782;37.528;2023-12-14T06:04:30;100411.88;;;-9.80;100.00
35435;BME280;21556;55.782;37.528;2023-12-14T06:07:02;100405.94;;;-10.03;100.00
35435;BME280;21556;55.782;37.528;2023-12-14T06:09:29;100413.88;;;-10.16;100.00
35435;BME280;21556;55.782;37.528;2023-12-14T06:12:02;100408.34;;;-10.05;100.00
35435;BME280;21556;55.782;37.528;2023-12-14T06:14:29;100403.41;;;-10.03;100.00
35435;BME280;21556;55.782;37.528;2023-12-14T06:16:57;100426.09;;;-9.89;100.00
35435;BME280;21556;55.782;37.528;2023-12-14T06:19:25;100398.44;;;-9.95;100.00
35435;BME280;21556;55.782;37.528;2023-12-14T06:21:51;100411.91;;;-10.19;100.00
35435;BME280;21556;55.782;37.528;2023-12-14T06:24:20;100404.41;;;-9.94;100.00
35435;BME280;21556;55.782;37.528;2023-12-14T06:26:48;100400.22;;;-9.78;100.00
35435;BME280;21556;55.782;37.528;2023-12-14T06:29:14;100400.63;;;-9.98;100.00
35435;BME280;21556;55.782;37.528;2023-12-14T06:31:45;100406.47;;;-9.83;100.00
35435;BME280;21556;55.782;37.528;2023-12-14T06:34:14;100409.22;;;-10.04;100.00
35435;BME280;21556;55.782;37.528;2023-12-14T06:36:45;100410.34;;;-10.09;100.00
35435;BME280;21556;55.782;37.528;2023-12-14T06:39:14;100421.78;;;-9.74;100.00
35435;BME280;21556;55.782;37.528;2023-12-14T06:41:40;100423.41;;;-9.90;100.00
35435;BME280;21556;55.782;37.528;2023-12-14T06:44:06;100420.47;;;-9.86;100.00
35435;BME280;21556;55.782;37.528;2023-12-14T06:46:37;100405.72;;;-9.98;100.00
35435;BME280;21556;55.782;37.528;2023-12-14T06:49:03;100417.91;;;-10.02;100.00
35435;BME280;21556;55.782;37.528;2023-12-14T06:51:29;100428.84;;;-9.87;100.00
35435;BME280;21556;55.782;37.528;2023-12-14T06:53:58;100409.66;;;-9.61;100.00
35435;BME280;21556;55.782;37.528;2023-12-14T06:56:27;100419.72;;;-9.70;100.00
35435;BME280;21556;55.782;37.528;2023-12-14T06:58:59;100419.72;;;-9.54;100.00
35435;BME280;21556;55.782;37.528;2023-12-14T07:01:28;100405.63;;;-9.59;100.00
35435;BME280;21556;55.782;37.528;2023-12-14T07:03:57;100430.84;;;-9.92;100.00
35435;BME280;21556;55.782;37.528;2023-12-14T07:06:26;100423.88;;;-9.70;100.00
35435;BME280;21556;55.782;37.528;2023-12-14T07:08:52;100411.84;;;-9.64;100.00
35435;BME280;21556;55.782;37.528;2023-12-14T07:11:18;100416.72;;;-9.34;100.00
35435;BME280;21556;55.782;37.528;2023-12-14T07:13:48;100412.44;;;-9.82;100.00
35435;BME280;21556;55.782;37.528;2023-12-14T07:16:26;100411.22;;;-9.86;100.00
35435;BME280;21556;55.782;37.528;2023-12-14T07:18:52;100401.75;;;-9.55;100.00
35435;BME280;21556;55.782;37.528;2023-12-14T07:21:18;100426.63;;;-9.68;100.00
35435;BME280;21556;55.782;37.528;2023-12-14T07:23:44;100430.94;;;-9.52;100.00
35435;BME280;21556;55.782;37.528;2023-12-14T07:26:10;100439.22;;;-9.93;100.00
35435;BME280;21556;55.782;37.528;2023-12-14T07:28:37;100430.53;;;-9.63;100.00
35435;BME280;21556;55.782;37.528;2023-12-14T07:31:03;100442.28;;;-9.73;100.00
35435;BME280;21556;55.782;37.528;2023-12-14T07:33:29;100442.47;;;-9.62;100.00
35435;BME280;21556;55.782;37.528;2023-12-14T07:35:55;100455.13;;;-9.87;100.00
35435;BME280;21556;55.782;37.528;2023-12-14T07:38:21;100457.25;;;-9.83;100.00
35435;BME280;21556;55.782;37.528;2023-12-14T07:40:47;100440.78;;;-9.71;100.00
35435;BME280;21556;55.782;37.528;2023-12-14T07:43:15;100441.63;;;-10.18;100.00
35435;BME280;21556;55.782;37.528;2023-12-14T07:45:41;100445.28;;;-9.84;100.00
35435;BME280;21556;55.782;37.528;2023-12-14T07:48:08;100447.63;;;-10.01;100.00
35435;BME280;21556;55.782;37.528;2023-12-14T07:50:34;100460.41;;;-9.77;100.00
35435;BME280;21556;55.782;37.528;2023-12-14T07:53:00;100446.59;;;-9.87;100.00
35435;BME280;21556;55.782;37.528;2023-12-14T07:55:26;100469.13;;;-9.75;100.00
35435;BME280;21556;55.782;37.528;2023-12-14T07:57:53;100449.13;;;-9.87;100.00
35435;BME280;21556;55.782;37.528;2023-12-14T08:00:19;100455.94;;;-9.63;100.00
35435;BME280;21556;55.782;37.528;2023-12-14T08:02:47;100467.00;;;-9.79;100.00
35435;BME280;21556;55.782;37.528;2023-12-14T08:05:16;100461.50;;;-9.75;100.00
35435;BME280;21556;55.782;37.528;2023-12-14T08:07:42;100464.53;;;-9.70;100.00
35435;BME280;21556;55.782;37.528;2023-12-14T08:10:09;100463.47;;;-9.56;100.00
35435;BME280;21556;55.782;37.528;2023-12-14T08:12:35;100462.41;;;-9.74;100.00
35435;BME280;21556;55.782;37.528;2023-12-14T08:15:01;100456.56;;;-9.73;100.00
35435;BME280;21556;55.782;37.528;2023-12-14T08:17:29;100464.13;;;-9.82;100.00
35435;BME280;21556;55.782;37.528;2023-12-14T08:19:55;100455.75;;;-9.97;100.00
35435;BME280;21556;55.782;37.528;2023-12-14T08:22:21;100453.72;;;-9.76;100.00
35435;BME280;21556;55.782;37.528;2023-12-14T08:24:48;100449.47;;;-9.53;100.00
35435;BME280;21556;55.782;37.528;2023-12-14T08:27:14;100454.44;;;-9.30;100.00
35435;BME280;21556;55.782;37.528;2023-12-14T08:29:40;100436.56;;;-9.23;100.00
35435;BME280;21556;55.782;37.528;2023-12-14T08:32:06;100440.69;;;-9.32;100.00
35435;BME280;21556;55.782;37.528;2023-12-14T08:34:35;100437.38;;;-9.15;100.00
35435;BME280;21556;55.782;37.528;2023-12-14T08:37:01;100447.22;;;-9.18;100.00
35435;BME280;21556;55.782;37.528;2023-12-14T08:39:28;100460.03;;;-9.41;100.00
35435;BME280;21556;55.782;37.528;2023-12-14T08:41:54;100451.69;;;-9.40;100.00
35435;BME280;21556;55.782;37.528;2023-12-14T08:44:20;100450.34;;;-9.21;100.00
35435;BME280;21556;55.782;37.528;2023-12-14T08:46:46;100457.56;;;-9.32;100.00
35435;BME280;21556;55.782;37.528;2023-12-14T08:49:13;100453.44;;;-9.07;100.00
35435;BME280;21556;55.782;37.528;2023-12-14T08:51:39;100458.72;;;-9.37;100.00
35435;BME280;21556;55.782;37.528;2023-12-14T08:54:06;100451.16;;;-9.45;100.00
35435;BME280;21556;55.782;37.528;2023-12-14T08:56:38;100445.34;;;-9.59;100.00
35435;BME280;21556;55.782;37.528;2023-12-14T08:59:04;100447.00;;;-9.28;100.00
35435;BME280;21556;55.782;37.528;2023-12-14T09:01:30;100453.38;;;-9.32;100.00
35435;BME280;21556;55.782;37.528;2023-12-14T09:03:56;100443.78;;;-9.18;100.00
35435;BME280;21556;55.782;37.528;2023-12-14T09:06:22;100444.78;;;-9.57;100.00
35435;BME280;21556;55.782;37.528;2023-12-14T09:08:48;100444.78;;;-9.41;100.00
35435;BME280;21556;55.782;37.528;2023-12-14T09:11:14;100430.53;;;-9.48;100.00
35435;BME280;21556;55.782;37.528;2023-12-14T09:13:41;100433.75;;;-9.57;100.00
35435;BME280;21556;55.782;37.528;2023-12-14T09:16:08;100427.00;;;-9.57;100.00
35435;BME280;21556;55.782;37.528;2023-12-14T09:18:34;100419.47;;;-9.64;100.00
35435;BME280;21556;55.782;37.528;2023-12-14T09:21:01;100420.50;;;-9.14;100.00
35435;BME280;21556;55.782;37.528;2023-12-14T09:23:27;100409.63;;;-9.05;100.00
35435;BME280;21556;55.782;37.528;2023-12-14T09:25:53;100414.22;;;-9.09;100.00
35435;BME280;21556;55.782;37.528;2023-12-14T09:28:19;100422.84;;;-9.16;100.00
35435;BME280;21556;55.782;37.528;2023-12-14T09:30:45;100426.38;;;-9.23;100.00
35435;BME280;21556;55.782;37.528;2023-12-14T09:33:11;100447.38;;;-9.16;100.00
35435;BME280;21556;55.782;37.528;2023-12-14T09:35:37;100441.06;;;-9.20;100.00
35435;BME280;21556;55.782;37.528;2023-12-14T09:38:06;100454.13;;;-9.49;100.00
35435;BME280;21556;55.782;37.528;2023-12-14T09:40:33;100452.19;;;-9.51;100.00
35435;BME280;21556;55.782;37.528;2023-12-14T09:43:02;100453.34;;;-9.16;100.00
35435;BME280;21556;55.782;37.528;2023-12-14T09:45:29;100452.88;;;-9.21;100.00
35435;BME280;21556;55.782;37.528;2023-12-14T09:47:57;100447.94;;;-9.19;100.00
35435;BME280;21556;55.782;37.528;2023-12-14T09:50:26;100460.63;;;-9.43;100.00
35435;BME280;21556;55.782;37.528;2023-12-14T09:52:52;100454.03;;;-9.41;100.00
35435;BME280;21556;55.782;37.528;2023-12-14T09:55:19;100458.41;;;-9.56;100.00
35435;BME280;21556;55.782;37.528;2023-12-14T09:57:46;100453.22;;;-9.33;100.00
35435;BME280;21556;55.782;37.528;2023-12-14T10:00:12;100441.25;;;-9.34;100.00
35435;BME280;21556;55.782;37.528;2023-12-14T10:02:41;100456.84;;;-9.47;100.00
35435;BME280;21556;55.782;37.528;2023-12-14T10:05:10;100454.72;;;-9.35;100.00
35435;BME280;21556;55.782;37.528;2023-12-14T10:07:43;100458.63;;;-9.30;100.00
35435;BME280;21556;55.782;37.528;2023-12-14T10:10:12;100450.59;;;-9.42;100.00
35435;BME280;21556;55.782;37.528;2023-12-14T10:12:52;100456.25;;;-9.29;100.00
35435;BME280;21556;55.782;37.528;2023-12-14T10:15:19;100455.03;;;-9.32;100.00
35435;BME280;21556;55.782;37.528;2023-12-14T10:17:46;100443.03;;;-9.17;100.00
35435;BME280;21556;55.782;37.528;2023-12-14T10:20:20;100439.56;;;-9.02;100.00
35435;BME280;21556;55.782;37.528;2023-12-14T10:22:53;100433.19;;;-9.14;100.00
35435;BME280;21556;55.782;37.528;2023-12-14T10:25:19;100426.28;;;-9.00;100.00
35435;BME280;21556;55.782;37.528;2023-12-14T10:27:52;100430.66;;;-8.90;100.00
35435;BME280;21556;55.782;37.528;2023-12-14T10:30:21;100431.78;;;-9.19;100.00
35435;BME280;21556;55.782;37.528;2023-12-14T10:32:48;100431.50;;;-8.98;100.00
35435;BME280;21556;55.782;37.528;2023-12-14T10:35:16;100434.84;;;-8.90;100.00
35435;BME280;21556;55.782;37.528;2023-12-14T10:37:43;100431.25;;;-8.92;100.00
35435;BME280;21556;55.782;37.528;2023-12-14T10:40:13;100430.41;;;-8.84;100.00
35435;BME280;21556;55.782;37.528;2023-12-14T10:42:45;100422.78;;;-8.84;100.00
35435;BME280;21556;55.782;37.528;2023-12-14T10:45:12;100417.75;;;-9.16;100.00
35435;BME280;21556;55.782;37.528;2023-12-14T10:47:43;100401.41;;;-8.78;100.00
35435;BME280;21556;55.782;37.528;2023-12-14T10:50:13;100406.94;;;-8.82;100.00
35435;BME280;21556;55.782;37.528;2023-12-14T10:52:42;100404.16;;;-8.67;100.00
35435;BME280;21556;55.782;37.528;2023-12-14T10:55:49;100404.59;;;-8.38;100.00
35435;BME280;21556;55.782;37.528;2023-12-14T10:59:00;100388.09;;;-8.33;100.00
35435;BME280;21556;55.782;37.528;2023-12-14T11:01:51;100390.25;;;-8.71;100.00
35435;BME280;21556;55.782;37.528;2023-12-14T11:04:24;100380.78;;;-8.72;100.00
35435;BME280;21556;55.782;37.528;2023-12-14T11:06:53;100392.81;;;-8.62;100.00
35435;BME280;21556;55.782;37.528;2023-12-14T11:09:22;100376.84;;;-8.86;100.00
35435;BME280;21556;55.782;37.528;2023-12-14T11:14:26;100373.66;;;-8.92;100.00
35435;BME280;21556;55.782;37.528;2023-12-14T11:16:56;100382.78;;;-8.61;100.00
35435;BME280;21556;55.782;37.528;2023-12-14T11:19:32;100371.69;;;-8.70;100.00
35435;BME280;21556;55.782;37.528;2023-12-14T11:22:10;100376.97;;;-8.60;100.00
35435;BME280;21556;55.782;37.528;2023-12-14T11:24:41;100389.44;;;-9.03;100.00
35435;BME280;21556;55.782;37.528;2023-12-14T11:27:11;100387.13;;;-8.93;100.00
35435;BME280;21556;55.782;37.528;2023-12-14T11:29:40;100368.31;;;-9.11;100.00
35435;BME280;21556;55.782;37.528;2023-12-14T11:32:10;100374.56;;;-8.91;100.00
35435;BME280;21556;55.782;37.528;2023-12-14T11:34:39;100376.78;;;-8.94;100.00
35435;BME280;21556;55.782;37.528;2023-12-14T11:37:11;100373.25;;;-8.79;100.00
35435;BME280;21556;55.782;37.528;2023-12-14T11:39:43;100370.59;;;-9.05;100.00
35435;BME280;21556;55.782;37.528;2023-12-14T11:42:18;100369.25;;;-8.77;100.00
35435;BME280;21556;55.782;37.528;2023-12-14T11:44:44;100407.91;;;-9.13;100.00
35435;BME280;21556;55.782;37.528;2023-12-14T11:47:10;100385.00;;;-9.22;100.00
35435;BME280;21556;55.782;37.528;2023-12-14T11:49:37;100378.88;;;-9.39;100.00
35435;BME280;21556;55.782;37.528;2023-12-14T11:52:03;100372.16;;;-8.90;100.00
35435;BME280;21556;55.782;37.528;2023-12-14T11:54:38;100379.09;;;-9.05;100.00
35435;BME280;21556;55.782;37.528;2023-12-14T11:57:04;100377.81;;;-8.68;100.00
35435;BME280;21556;55.782;37.528;2023-12-14T11:59:37;100378.63;;;-8.52;100.00
35435;BME280;21556;55.782;37.528;2023-12-14T12:02:11;100389.16;;;-8.73;100.00
35435;BME280;21556;55.782;37.528;2023-12-14T12:04:50;100395.66;;;-8.59;100.00
35435;BME280;21556;55.782;37.528;2023-12-14T12:07:17;100395.09;;;-8.57;100.00
35435;BME280;21556;55.782;37.528;2023-12-14T12:09:43;100402.59;;;-8.50;100.00
35435;BME280;21556;55.782;37.528;2023-12-14T12:12:11;100391.81;;;-8.47;100.00
35435;BME280;21556;55.782;37.528;2023-12-14T12:14:41;100403.50;;;-8.49;100.00
35435;BME280;21556;55.782;37.528;2023-12-14T12:17:07;100399.94;;;-8.34;100.00
35435;BME280;21556;55.782;37.528;2023-12-14T12:19:35;100398.03;;;-8.61;100.00
35435;BME280;21556;55.782;37.528;2023-12-14T12:22:02;100403.84;;;-8.70;100.00
35435;BME280;21556;55.782;37.528;2023-12-14T12:24:28;100409.19;;;-8.76;100.00
35435;BME280;21556;55.782;37.528;2023-12-14T12:26:58;100388.09;;;-8.75;100.00
35435;BME280;21556;55.782;37.528;2023-12-14T12:29:35;100390.16;;;-8.80;100.00
35435;BME280;21556;55.782;37.528;2023-12-14T12:32:01;100404.84;;;-8.77;100.00
35435;BME280;21556;55.782;37.528;2023-12-14T12:34:28;100397.78;;;-8.88;100.00